Time;durP1;ratioP1;P1;durP2;ratioP2;P2;SDS_P1;SDS_P2;PMS_P1;PMS_P2;Temp;Humidity;BMP_temperature;BMP_pressure;BME280_temperature;BME280_humidity;BME280_pressure;Samples;Min_cycle;Max_cycle;Signal;HPM_P1;HPM_P2
2023/02/14 00:02:03;;;;;;;8.40;5.40;;;23.10;45.70;;;;;;6250557;27;80765;-46
2023/02/14 00:05:03;;;;;;;9.10;5.70;;;23.00;46.50;;;;;;6251708;27;80413;-46
2023/02/14 00:08:04;;;;;;;9.85;6.32;;;23.00;45.90;;;;;;6241994;27;80516;-45
2023/02/14 00:11:04;;;;;;;10.40;5.97;;;23.00;46.00;;;;;;6251877;27;81856;-47
2023/02/14 00:17:24;;;;;;;9.13;6.38;;;23.00;45.80;;;;;;6245816;27;81819;-48
2023/02/14 00:20:24;;;;;;;12.07;6.53;;;23.00;45.40;;;;;;6241636;27;80925;-44
2023/02/14 00:23:25;;;;;;;12.70;6.05;;;23.00;45.60;;;;;;6237036;27;81854;-46
2023/02/14 00:26:25;;;;;;;12.55;6.55;;;23.00;46.00;;;;;;6251640;27;80224;-45
2023/02/14 00:29:26;;;;;;;12.50;6.47;;;23.00;46.00;;;;;;6234038;27;80176;-48
2023/02/14 00:32:26;;;;;;;10.13;6.20;;;23.00;45.70;;;;;;6247032;27;80118;-47
2023/02/14 00:35:27;;;;;;;10.27;5.95;;;23.00;45.60;;;;;;6251967;27;80476;-44
2023/02/14 00:38:28;;;;;;;8.93;6.10;;;23.00;45.60;;;;;;6237741;27;83177;-49
2023/02/14 00:41:28;;;;;;;8.93;6.15;;;23.00;45.30;;;;;;6251195;27;80588;-46
2023/02/14 00:44:29;;;;;;;11.73;6.63;;;23.00;45.30;;;;;;6251713;27;80386;-46
2023/02/14 00:47:29;;;;;;;10.68;6.40;;;23.00;45.40;;;;;;6241106;27;80193;-56
2023/02/14 00:50:30;;;;;;;8.15;5.95;;;23.00;45.20;;;;;;6247627;27;80348;-57
2023/02/14 00:53:30;;;;;;;9.90;5.78;;;23.00;45.30;;;;;;6239571;27;80944;-56
2023/02/14 00:56:31;;;;;;;7.90;5.32;;;23.00;45.00;;;;;;6251625;27;81164;-55
2023/02/14 00:59:31;;;;;;;7.55;4.97;;;23.00;45.10;;;;;;6248345;27;82013;-54
2023/02/14 01:02:32;;;;;;;7.75;5.20;;;23.00;45.20;;;;;;6249020;27;82570;-57
2023/02/14 01:05:32;;;;;;;8.57;5.47;;;23.00;45.30;;;;;;6243431;27;80423;-54
2023/02/14 01:08:33;;;;;;;9.27;5.57;;;23.00;45.40;;;;;;6240504;27;82042;-57
2023/02/14 01:11:33;;;;;;;8.93;5.20;;;23.00;45.20;;;;;;6255655;27;80638;-57
2023/02/14 01:14:34;;;;;;;8.98;5.65;;;23.00;45.20;;;;;;6253657;27;81414;-59
2023/02/14 01:17:35;;;;;;;8.75;5.65;;;23.00;45.20;;;;;;6249954;27;80215;-58
2023/02/14 01:20:35;;;;;;;7.35;5.15;;;22.90;45.30;;;;;;6251118;27;82217;-56
2023/02/14 01:23:36;;;;;;;9.32;5.80;;;22.90;45.20;;;;;;6246382;27;81969;-47
2023/02/14 01:26:36;;;;;;;6.93;4.93;;;22.90;45.30;;;;;;6249628;27;80737;-45
2023/02/14 01:29:37;;;;;;;10.07;6.18;;;22.90;45.30;;;;;;6242478;27;81881;-46
2023/02/14 01:32:37;;;;;;;8.73;5.72;;;22.90;45.40;;;;;;6251828;27;80380;-45
2023/02/14 01:35:38;;;;;;;9.00;6.30;;;22.90;45.40;;;;;;6244372;27;80509;-49
2023/02/14 01:38:39;;;;;;;9.23;5.85;;;22.90;45.50;;;;;;6252010;27;83471;-48
2023/02/14 01:41:40;;;;;;;9.00;6.00;;;22.90;45.50;;;;;;6253238;27;80209;-45
2023/02/14 01:44:40;;;;;;;9.05;6.13;;;22.90;45.40;;;;;;6253532;27;83505;-48
2023/02/14 01:47:41;;;;;;;9.90;5.97;;;22.90;45.60;;;;;;6244458;27;81896;-48
2023/02/14 01:50:41;;;;;;;9.20;5.70;;;22.90;45.50;;;;;;6255156;27;80515;-47
2023/02/14 01:53:42;;;;;;;11.52;6.30;;;22.90;45.50;;;;;;6254444;27;80485;-46
2023/02/14 01:56:42;;;;;;;10.75;6.05;;;22.90;45.70;;;;;;6256306;27;80054;-46
2023/02/14 01:59:43;;;;;;;10.73;6.35;;;22.90;45.70;;;;;;6252150;27;83546;-47
2023/02/14 02:02:43;;;;;;;10.02;6.85;;;22.90;45.70;;;;;;6244165;27;81951;-48
2023/02/14 02:05:44;;;;;;;9.98;6.45;;;22.90;45.80;;;;;;6252672;27;83311;-48
2023/02/14 02:08:44;;;;;;;8.43;5.97;;;22.90;45.80;;;;;;6252826;27;81403;-44
2023/02/14 02:11:45;;;;;;;10.05;6.38;;;22.90;45.80;;;;;;6262588;27;80583;-46
2023/02/14 02:14:49;;;;;;;11.85;6.85;;;22.90;46.30;;;;;;6253316;27;81658;-46
2023/02/14 02:17:50;;;;;;;10.15;6.20;;;22.90;45.90;;;;;;6253851;27;80161;-46
2023/02/14 02:20:50;;;;;;;10.48;6.03;;;22.90;45.80;;;;;;6239563;27;83477;-47
2023/02/14 02:23:51;;;;;;;11.57;6.00;;;22.80;45.70;;;;;;6254346;27;82703;-45
2023/02/14 02:26:51;;;;;;;10.48;6.20;;;22.90;45.60;;;;;;6252066;27;82313;-47
2023/02/14 02:29:52;;;;;;;8.43;5.60;;;22.90;45.70;;;;;;6239915;27;82160;-45
2023/02/14 02:32:54;;;;;;;14.25;6.90;;;22.80;45.50;;;;;;6253216;27;80696;-44
2023/02/14 02:35:56;;;;;;;11.00;6.07;;;22.80;45.50;;;;;;6252499;27;83485;-44
2023/02/14 02:38:56;;;;;;;10.95;7.03;;;22.80;45.60;;;;;;6251313;27;81835;-45
2023/02/14 02:41:57;;;;;;;8.85;5.85;;;22.80;45.50;;;;;;6253127;27;80542;-45
2023/02/14 02:44:57;;;;;;;10.05;5.80;;;22.90;45.20;;;;;;6237743;27;83938;-45
2023/02/14 02:47:58;;;;;;;9.82;6.25;;;22.80;45.40;;;;;;6253170;27;80554;-47
2023/02/14 02:54:18;;;;;;;10.05;6.20;;;22.80;45.30;;;;;;6254157;27;80908;-46
2023/02/14 02:57:19;;;;;;;9.48;6.78;;;22.90;45.40;;;;;;6237552;27;83235;-47
2023/02/14 03:00:20;;;;;;;9.68;6.28;;;22.80;45.30;;;;;;6253969;27;80855;-47
2023/02/14 03:06:40;;;;;;;10.10;6.72;;;22.80;45.50;;;;;;6249394;27;83330;-45
2023/02/14 03:09:41;;;;;;;10.90;6.50;;;22.80;45.60;;;;;;6252656;27;80462;-46
2023/02/14 03:12:42;;;;;;;11.18;7.18;;;22.80;45.50;;;;;;6260603;27;82836;-45
2023/02/14 03:15:42;;;;;;;8.15;5.75;;;22.80;45.40;;;;;;6253355;27;80545;-59
2023/02/14 03:22:03;;;;;;;10.25;6.47;;;22.80;45.50;;;;;;6240562;27;81774;-58
2023/02/14 03:25:04;;;;;;;11.38;6.78;;;22.80;45.80;;;;;;6229848;27;83321;-59
2023/02/14 03:28:04;;;;;;;9.32;6.45;;;22.70;45.40;;;;;;6236782;27;82385;-58
2023/02/14 03:31:05;;;;;;;10.13;6.22;;;22.80;45.50;;;;;;6254046;27;80277;-60
2023/02/14 03:34:05;;;;;;;9.02;6.35;;;22.80;45.80;;;;;;6239807;27;83521;-60
2023/02/14 03:37:06;;;;;;;9.90;5.95;;;22.80;45.80;;;;;;6241663;27;80590;-59
2023/02/14 03:40:07;;;;;;;9.35;5.50;;;22.80;45.90;;;;;;6232588;27;82972;-58
2023/02/14 03:43:07;;;;;;;9.40;6.20;;;22.70;45.80;;;;;;6238002;27;83468;-60
2023/02/14 03:46:08;;;;;;;8.30;5.72;;;22.70;45.90;;;;;;6238927;27;82286;-59
2023/02/14 03:49:09;;;;;;;8.05;5.60;;;22.70;45.80;;;;;;6252761;27;81188;-59
2023/02/14 03:52:09;;;;;;;7.78;5.75;;;22.70;46.30;;;;;;6239286;27;81356;-59
2023/02/14 03:55:10;;;;;;;9.68;5.93;;;22.70;45.80;;;;;;6253319;27;81192;-60
2023/02/14 03:58:10;;;;;;;9.75;6.35;;;22.70;46.10;;;;;;6250706;27;80767;-58
2023/02/14 04:01:11;;;;;;;10.45;6.43;;;22.70;45.60;;;;;;6233238;27;81730;-58
2023/02/14 04:04:11;;;;;;;9.32;6.18;;;22.70;45.60;;;;;;6239650;27;81387;-58
2023/02/14 04:07:12;;;;;;;9.40;6.20;;;22.70;45.50;;;;;;6228749;27;80673;-57
2023/02/14 04:10:12;;;;;;;8.60;5.43;;;22.70;45.50;;;;;;6251894;27;80498;-60
2023/02/14 04:13:13;;;;;;;11.25;5.90;;;22.70;45.40;;;;;;6237084;27;80854;-58
2023/02/14 04:16:13;;;;;;;8.55;5.43;;;22.80;45.20;;;;;;6252302;27;80278;-60
2023/02/14 04:19:23;;;;;;;8.52;5.22;;;22.80;45.20;;;;;;6239897;27;81071;-60
2023/02/14 04:22:24;;;;;;;10.75;6.38;;;22.80;45.00;;;;;;6251628;27;83709;-60
2023/02/14 04:25:24;;;;;;;11.10;6.00;;;22.90;44.70;;;;;;6240700;27;80624;-60
2023/02/14 04:28:25;;;;;;;10.98;6.50;;;22.90;44.40;;;;;;6241611;27;81374;-48
2023/02/14 04:31:25;;;;;;;10.73;6.45;;;22.90;44.30;;;;;;6250721;27;80518;-45
2023/02/14 04:34:26;;;;;;;10.38;5.65;;;23.00;44.10;;;;;;6250123;27;80228;-44
2023/02/14 04:37:26;;;;;;;9.18;5.85;;;23.00;44.00;;;;;;6244326;27;80347;-49
2023/02/14 04:40:27;;;;;;;9.13;6.20;;;23.10;44.10;;;;;;6251142;27;80333;-47
2023/02/14 04:43:27;;;;;;;12.18;6.78;;;23.10;44.20;;;;;;6248731;27;81558;-48
2023/02/14 04:46:28;;;;;;;13.88;7.43;;;23.20;44.20;;;;;;6247846;27;80189;-50
2023/02/14 04:49:28;;;;;;;10.40;6.53;;;23.20;43.80;;;;;;6246074;27;80879;-58
2023/02/14 04:52:29;;;;;;;12.57;7.03;;;23.20;43.60;;;;;;6236690;27;80528;-45
2023/02/14 04:55:29;;;;;;;11.98;6.05;;;23.30;43.40;;;;;;6241459;27;80567;-46
2023/02/14 04:58:30;;;;;;;10.40;6.85;;;23.30;43.40;;;;;;6230282;27;80612;-45
2023/02/14 05:01:30;;;;;;;11.32;6.65;;;23.30;43.50;;;;;;6245744;27;80540;-49
2023/02/14 05:04:31;;;;;;;10.85;6.75;;;23.30;43.40;;;;;;6235023;27;83805;-46
2023/02/14 05:07:31;;;;;;;11.05;7.05;;;23.30;43.60;;;;;;6242788;27;80894;-49
2023/02/14 05:10:32;;;;;;;12.40;7.53;;;23.40;43.40;;;;;;6237504;27;80550;-47
2023/02/14 05:13:32;;;;;;;14.52;7.22;;;23.30;43.70;;;;;;6240110;27;81348;-54
2023/02/14 05:16:33;;;;;;;11.73;6.75;;;23.40;44.40;;;;;;6232976;27;80710;-50
2023/02/14 05:19:34;;;;;;;21.63;7.32;;;23.40;44.30;;;;;;6243622;27;87068;-47
2023/02/14 05:22:34;;;;;;;11.02;7.03;;;23.40;44.00;;;;;;6237605;27;83998;-51
2023/02/14 05:25:35;;;;;;;14.18;7.30;;;23.50;43.90;;;;;;6248152;27;81652;-48
2023/02/14 05:28:35;;;;;;;12.20;6.80;;;23.50;44.30;;;;;;6243725;27;81047;-47
2023/02/14 05:31:36;;;;;;;13.50;7.60;;;23.50;44.40;;;;;;6246329;27;80368;-47
2023/02/14 05:34:36;;;;;;;11.70;7.32;;;23.50;44.40;;;;;;6240233;27;80956;-51
2023/02/14 05:37:37;;;;;;;13.13;7.55;;;23.40;44.20;;;;;;6248043;27;81345;-47
2023/02/14 05:40:37;;;;;;;12.45;7.10;;;23.40;44.20;;;;;;6243066;27;80597;-46
2023/02/14 05:43:38;;;;;;;11.07;7.28;;;23.40;44.10;;;;;;6249878;27;80788;-53
2023/02/14 05:46:39;;;;;;;13.13;7.80;;;23.40;44.10;;;;;;6249948;27;80976;-56
2023/02/14 05:49:39;;;;;;;12.77;8.25;;;23.40;43.90;;;;;;6250188;27;80378;-55
2023/02/14 05:52:40;;;;;;;12.20;7.97;;;23.50;43.80;;;;;;6249004;27;80495;-55
2023/02/14 05:55:40;;;;;;;13.00;8.00;;;23.40;43.40;;;;;;6235996;27;82434;-52
2023/02/14 05:58:41;;;;;;;12.73;7.63;;;23.40;43.70;;;;;;6250626;27;80846;-64
2023/02/14 06:01:41;;;;;;;12.90;7.53;;;23.40;43.90;;;;;;6240979;27;80479;-63
2023/02/14 06:04:42;;;;;;;15.13;7.72;;;23.50;43.60;;;;;;6231406;27;83652;-62
2023/02/14 06:07:44;;;;;;;12.23;7.20;;;23.50;43.90;;;;;;6242276;27;80803;-63
2023/02/14 06:10:45;;;;;;;14.85;7.47;;;23.40;43.40;;;;;;6245357;27;80443;-62
2023/02/14 06:13:45;;;;;;;13.68;7.90;;;23.50;43.40;;;;;;6241019;27;80412;-63
2023/02/14 06:16:46;;;;;;;13.38;8.10;;;23.40;43.10;;;;;;6248844;27;80882;-62
2023/02/14 06:19:46;;;;;;;11.65;6.85;;;23.40;43.10;;;;;;6251876;27;80507;-62
2023/02/14 06:22:47;;;;;;;10.98;7.45;;;23.40;43.10;;;;;;6252874;27;80386;-62
2023/02/14 06:25:47;;;;;;;13.68;7.53;;;23.40;42.90;;;;;;6240103;27;85445;-62
2023/02/14 06:28:48;;;;;;;12.38;7.40;;;23.30;42.80;;;;;;6236506;27;81187;-68
2023/02/14 06:31:48;;;;;;;10.25;7.13;;;23.30;42.80;;;;;;6245180;27;80485;-61
2023/02/14 06:34:49;;;;;;;10.85;7.38;;;23.30;42.80;;;;;;6244790;27;80321;-60
2023/02/14 06:37:49;;;;;;;11.65;7.70;;;23.20;42.70;;;;;;6246378;27;80590;-58
2023/02/14 06:40:50;;;;;;;13.05;7.65;;;23.20;42.80;;;;;;6251314;27;80551;-59
2023/02/14 06:43:50;;;;;;;14.32;8.30;;;23.20;42.60;;;;;;6248445;27;80229;-61
2023/02/14 06:46:51;;;;;;;13.70;8.50;;;23.10;42.70;;;;;;6247398;27;83308;-59
2023/02/14 06:49:52;;;;;;;13.57;8.07;;;23.10;42.80;;;;;;6247737;27;80451;-59
2023/02/14 06:52:52;;;;;;;13.23;8.30;;;23.10;42.70;;;;;;6247898;27;81027;-59
2023/02/14 06:55:53;;;;;;;13.57;7.85;;;23.10;42.70;;;;;;6247363;27;80988;-60
2023/02/14 06:58:56;;;;;;;14.73;8.07;;;23.10;43.00;;;;;;6245984;27;80795;-59
2023/02/14 07:01:56;;;;;;;16.55;8.13;;;23.10;43.10;;;;;;6248737;27;84992;-59
2023/02/14 07:04:57;;;;;;;11.80;8.00;;;23.10;43.20;;;;;;6242932;27;80460;-59
2023/02/14 07:07:57;;;;;;;13.35;8.23;;;23.10;43.30;;;;;;6244208;27;81912;-61
2023/02/14 07:10:58;;;;;;;12.13;7.47;;;23.00;43.10;;;;;;6248207;27;81084;-60
2023/02/14 07:13:58;;;;;;;12.13;7.45;;;23.00;43.10;;;;;;6243852;27;81660;-59
2023/02/14 07:16:59;;;;;;;11.82;7.68;;;23.00;43.10;;;;;;6247316;27;80475;-60
2023/02/14 07:19:59;;;;;;;13.90;7.72;;;23.00;43.10;;;;;;6246114;27;84395;-60
2023/02/14 07:23:00;;;;;;;11.63;7.80;;;22.90;43.00;;;;;;6247247;27;80790;-58
2023/02/14 07:26:00;;;;;;;12.20;7.85;;;22.90;43.00;;;;;;6241987;27;80640;-59
2023/02/14 07:29:01;;;;;;;11.73;7.78;;;22.90;42.90;;;;;;6245640;27;81055;-62
2023/02/14 07:32:02;;;;;;;12.43;8.30;;;22.90;42.80;;;;;;6247519;27;80199;-60
2023/02/14 07:35:02;;;;;;;11.77;7.15;;;22.90;42.70;;;;;;6249007;27;80908;-59
2023/02/14 07:38:03;;;;;;;13.15;7.70;;;22.90;42.70;;;;;;6240775;27;80784;-58
2023/02/14 07:41:03;;;;;;;12.40;7.15;;;22.80;42.60;;;;;;6249804;27;80610;-59
2023/02/14 07:44:04;;;;;;;12.20;7.75;;;22.80;42.30;;;;;;6250278;27;80513;-59
2023/02/14 07:47:04;;;;;;;16.85;7.60;;;22.80;42.10;;;;;;6239951;27;80280;-58
2023/02/14 07:50:05;;;;;;;11.45;7.85;;;22.80;42.10;;;;;;6250070;27;80492;-58
2023/02/14 07:53:07;;;;;;;13.63;7.63;;;22.80;42.00;;;;;;6248877;27;80717;-59
2023/02/14 07:56:07;;;;;;;12.35;7.50;;;22.80;41.90;;;;;;6249330;27;80501;-59
2023/02/14 07:59:08;;;;;;;10.90;7.30;;;22.80;41.90;;;;;;6248884;27;82132;-58
2023/02/14 08:02:08;;;;;;;12.05;7.22;;;22.80;41.70;;;;;;6249345;27;81537;-58
2023/02/14 08:05:09;;;;;;;11.18;7.18;;;22.70;41.70;;;;;;6248859;27;80885;-57
2023/02/14 08:08:09;;;;;;;15.43;7.95;;;22.70;41.50;;;;;;6250855;27;81574;-57
2023/02/14 08:11:10;;;;;;;10.48;7.03;;;22.70;41.50;;;;;;6254872;27;80429;-58
2023/02/14 08:14:10;;;;;;;11.15;7.20;;;22.70;41.30;;;;;;6257868;27;80677;-58
2023/02/14 08:17:12;;;;;;;12.60;7.90;;;22.70;41.40;;;;;;6251098;27;81102;-58
2023/02/14 08:20:13;;;;;;;12.70;7.13;;;22.70;41.20;;;;;;6251281;27;81650;-58
2023/02/14 08:23:13;;;;;;;11.98;7.43;;;22.70;41.30;;;;;;6240686;27;80474;-59
2023/02/14 08:26:14;;;;;;;18.15;7.25;;;22.70;41.20;;;;;;6239868;27;80572;-58
2023/02/14 08:29:15;;;;;;;13.23;7.70;;;22.70;41.20;;;;;;6245262;27;81620;-51
2023/02/14 08:32:19;;;;;;;10.32;7.30;;;22.70;41.10;;;;;;6229796;27;80515;-47
2023/02/14 08:35:20;;;;;;;12.20;7.32;;;22.70;41.10;;;;;;6240910;27;80578;-47
2023/02/14 08:38:20;;;;;;;11.50;7.18;;;22.70;41.00;;;;;;6246266;27;80567;-46
2023/02/14 08:41:21;;;;;;;9.95;7.55;;;22.80;40.90;;;;;;6250997;27;80436;-48
2023/02/14 08:44:21;;;;;;;9.57;7.18;;;22.80;40.80;;;;;;6250971;27;80649;-46
2023/02/14 08:47:22;;;;;;;13.30;7.82;;;22.80;40.70;;;;;;6251375;27;81660;-58
2023/02/14 08:50:22;;;;;;;12.25;7.47;;;22.80;40.90;;;;;;6251670;27;80515;-59
2023/02/14 08:53:23;;;;;;;12.60;7.57;;;22.90;40.70;;;;;;6250951;27;81448;-59
2023/02/14 08:56:24;;;;;;;12.60;7.53;;;22.90;40.50;;;;;;6247457;27;82329;-59
2023/02/14 08:59:24;;;;;;;14.15;8.13;;;22.90;40.60;;;;;;6250074;27;81070;-59
2023/02/14 09:02:25;;;;;;;10.52;6.63;;;22.90;40.40;;;;;;6250915;27;81058;-59
2023/02/14 09:05:25;;;;;;;11.88;7.80;;;23.00;40.40;;;;;;6252365;27;80398;-59
2023/02/14 09:08:26;;;;;;;11.07;7.40;;;23.00;40.30;;;;;;6251922;27;80959;-59
2023/02/14 09:11:26;;;;;;;12.30;8.00;;;23.00;40.30;;;;;;6249848;27;80947;-59
2023/02/14 09:14:28;;;;;;;13.73;7.45;;;23.00;40.40;;;;;;6254101;27;81062;-59
2023/02/14 09:17:29;;;;;;;9.18;6.85;;;23.00;40.20;;;;;;6247593;27;80309;-59
2023/02/14 09:20:30;;;;;;;10.52;7.35;;;23.10;40.30;;;;;;6250502;27;87240;-58
2023/02/14 09:23:30;;;;;;;12.10;7.05;;;23.10;40.20;;;;;;6247838;27;81537;-58
2023/02/14 09:26:31;;;;;;;11.55;6.93;;;23.10;40.00;;;;;;6239167;27;82623;-59
2023/02/14 09:29:32;;;;;;;15.95;7.82;;;23.10;40.20;;;;;;6239124;27;80504;-58
2023/02/14 09:32:32;;;;;;;13.73;7.07;;;23.10;40.00;;;;;;6238020;27;80583;-59
2023/02/14 09:35:33;;;;;;;12.07;7.28;;;23.10;40.00;;;;;;6247884;27;80252;-59
2023/02/14 09:38:33;;;;;;;13.13;7.60;;;23.10;39.90;;;;;;6230901;27;80181;-59
2023/02/14 09:41:34;;;;;;;9.77;6.65;;;23.10;39.90;;;;;;6243517;27;80447;-58
2023/02/14 09:44:34;;;;;;;12.18;7.07;;;23.10;39.90;;;;;;6247802;27;80412;-59
2023/02/14 09:47:35;;;;;;;13.00;6.80;;;23.10;39.90;;;;;;6241759;27;80841;-59
2023/02/14 09:50:35;;;;;;;10.40;6.78;;;23.10;39.90;;;;;;6251193;27;80111;-59
2023/02/14 09:53:36;;;;;;;10.95;6.30;;;23.10;39.90;;;;;;6249514;27;80007;-59
2023/02/14 09:56:37;;;;;;;11.73;6.75;;;23.10;39.80;;;;;;6246939;27;80374;-61
2023/02/14 09:59:37;;;;;;;12.40;7.47;;;23.20;39.60;;;;;;6249875;27;81537;-59
2023/02/14 10:02:38;;;;;;;12.13;7.50;;;23.20;39.60;;;;;;6238516;27;81991;-59
2023/02/14 10:05:38;;;;;;;12.52;7.20;;;23.20;39.70;;;;;;6243152;27;81332;-60
2023/02/14 10:08:39;;;;;;;13.10;7.70;;;23.20;39.80;;;;;;6251923;27;81267;-60
2023/02/14 10:11:39;;;;;;;10.02;6.45;;;23.20;39.90;;;;;;6253576;27;80406;-59
2023/02/14 10:14:40;;;;;;;11.93;6.90;;;23.20;40.00;;;;;;6242466;27;81251;-60
2023/02/14 10:17:41;;;;;;;10.10;6.75;;;23.10;40.10;;;;;;6252276;27;80808;-59
2023/02/14 10:20:41;;;;;;;12.65;6.97;;;23.20;40.30;;;;;;6254081;27;81074;-60
2023/02/14 10:23:42;;;;;;;14.27;6.93;;;23.20;40.40;;;;;;6254371;27;80517;-59
2023/02/14 10:26:43;;;;;;;11.32;7.22;;;23.20;40.50;;;;;;6250953;27;80626;-59
2023/02/14 10:29:43;;;;;;;12.52;7.35;;;23.20;40.60;;;;;;6242304;27;80510;-59
2023/02/14 10:32:44;;;;;;;13.00;7.38;;;23.30;40.70;;;;;;6253911;27;80642;-59
2023/02/14 10:35:44;;;;;;;15.10;7.65;;;23.30;40.70;;;;;;6253423;27;81099;-47
2023/02/14 10:38:45;;;;;;;15.40;7.25;;;23.20;40.80;;;;;;6239953;27;80907;-48
2023/02/14 10:41:47;;;;;;;13.70;7.22;;;23.30;40.80;;;;;;6252874;27;81358;-46
2023/02/14 10:44:48;;;;;;;97.40;47.75;;;23.30;40.80;;;;;;6251966;27;80784;-48
2023/02/14 10:47:49;;;;;;;166.85;77.40;;;23.30;40.90;;;;;;6241030;27;83090;-46
2023/02/14 10:50:49;;;;;;;247.23;114.70;;;23.30;40.80;;;;;;6238572;27;86156;-49
2023/02/14 10:53:50;;;;;;;291.80;127.25;;;23.30;40.80;;;;;;6235504;27;85531;-47
2023/02/14 10:56:50;;;;;;;436.23;202.27;;;23.30;41.40;;;;;;6241273;27;87819;-47
2023/02/14 10:59:51;;;;;;;411.52;184.30;;;23.30;40.90;;;;;;6245676;27;85740;-50
2023/02/14 11:02:52;;;;;;;337.27;149.10;;;23.30;40.70;;;;;;6243855;27;85589;-49
2023/02/14 11:05:52;;;;;;;253.32;112.60;;;23.30;40.80;;;;;;6232791;27;85804;-52
2023/02/14 11:08:53;;;;;;;219.95;101.15;;;23.30;40.70;;;;;;6244978;27;85803;-49
2023/02/14 11:11:53;;;;;;;189.80;85.53;;;23.30;40.60;;;;;;6243304;27;86609;-47
2023/02/14 11:14:54;;;;;;;175.18;77.97;;;23.30;40.50;;;;;;6226033;27;85387;-49
2023/02/14 11:17:54;;;;;;;157.82;68.22;;;23.30;40.40;;;;;;6246986;27;83468;-49
2023/02/14 11:20:55;;;;;;;140.48;65.35;;;23.30;40.50;;;;;;6248132;27;83392;-49
2023/02/14 11:23:55;;;;;;;121.88;57.10;;;23.30;40.70;;;;;;6249273;27;84940;-48
2023/02/14 11:26:56;;;;;;;120.95;53.03;;;23.30;40.70;;;;;;6247767;27;82990;-47
2023/02/14 11:29:56;;;;;;;101.47;50.20;;;23.30;41.10;;;;;;6238958;27;86973;-52
2023/02/14 11:32:57;;;;;;;111.10;45.35;;;23.30;41.20;;;;;;6249128;27;83742;-50
2023/02/14 11:35:58;;;;;;;88.15;41.42;;;23.30;41.20;;;;;;6247354;27;83444;-49
2023/02/14 11:38:58;;;;;;;80.88;39.08;;;23.20;41.10;;;;;;6237313;27;83782;-48
2023/02/14 11:41:59;;;;;;;81.65;37.20;;;23.20;41.50;;;;;;6246008;27;83438;-59
2023/02/14 11:44:59;;;;;;;77.80;35.30;;;23.20;41.50;;;;;;6244286;27;84203;-48
2023/02/14 11:48:00;;;;;;;71.97;31.77;;;23.20;41.70;;;;;;6242915;27;90826;-53
2023/02/14 11:51:00;;;;;;;73.65;30.73;;;23.20;41.80;;;;;;6240869;27;83690;-53
2023/02/14 11:54:03;;;;;;;60.83;28.08;;;23.20;41.90;;;;;;6243025;27;82979;-46
2023/02/14 11:57:04;;;;;;;48.63;24.70;;;23.20;41.90;;;;;;6239697;27;83697;-51
2023/02/14 12:00:05;;;;;;;54.30;25.50;;;23.20;42.10;;;;;;6242504;27;83069;-49
2023/02/14 12:03:12;;;;;;;47.83;23.30;;;23.10;42.10;;;;;;6243090;27;83979;-48
2023/02/14 12:06:13;;;;;;;41.30;20.63;;;23.20;42.10;;;;;;6240728;27;83325;-47
2023/02/14 12:09:13;;;;;;;37.15;19.08;;;23.20;42.00;;;;;;6242577;27;83223;-56
2023/02/14 12:12:14;;;;;;;33.97;18.02;;;23.20;41.90;;;;;;6242556;27;83572;-57
2023/02/14 12:15:14;;;;;;;35.45;16.25;;;23.20;41.90;;;;;;6245300;27;83215;-56
2023/02/14 12:18:15;;;;;;;28.27;15.15;;;23.20;42.00;;;;;;6239696;27;82873;-58
2023/02/14 12:21:15;;;;;;;26.48;13.88;;;23.10;41.70;;;;;;6248165;27;83831;-55
2023/02/14 12:24:16;;;;;;;25.38;12.90;;;23.10;42.20;;;;;;6231233;27;83636;-55
2023/02/14 12:27:18;;;;;;;24.67;12.57;;;23.10;42.40;;;;;;6238615;27;83169;-57
2023/02/14 12:30:19;;;;;;;27.00;13.25;;;23.10;42.50;;;;;;6245350;27;83186;-56
2023/02/14 12:33:19;;;;;;;26.90;11.68;;;23.10;42.50;;;;;;6242801;27;83170;-57
2023/02/14 12:36:20;;;;;;;21.75;10.85;;;23.10;42.00;;;;;;6241841;27;83050;-56
2023/02/14 12:39:20;;;;;;;21.33;10.02;;;23.00;42.00;;;;;;6242279;27;83150;-58
2023/02/14 12:42:21;;;;;;;18.90;10.27;;;23.00;42.00;;;;;;6241256;27;83116;-57
2023/02/14 12:45:22;;;;;;;18.98;10.00;;;23.00;41.90;;;;;;6247927;27;84078;-56
2023/02/14 12:48:22;;;;;;;15.60;8.95;;;23.00;41.90;;;;;;6243622;27;83689;-57
2023/02/14 12:51:23;;;;;;;15.07;8.82;;;23.00;41.70;;;;;;6250997;27;82778;-56
2023/02/14 12:54:23;;;;;;;19.42;9.05;;;23.00;41.50;;;;;;6250200;27;80958;-57
2023/02/14 12:57:24;;;;;;;15.18;9.50;;;23.00;41.60;;;;;;6249598;27;81029;-58
2023/02/14 13:00:24;;;;;;;14.48;8.27;;;23.00;41.50;;;;;;6250460;27;80680;-56
2023/02/14 13:03:25;;;;;;;15.55;7.43;;;23.00;41.40;;;;;;6229774;27;80744;-57
2023/02/14 13:06:25;;;;;;;16.73;7.85;;;22.90;41.40;;;;;;6239351;27;80264;-57
2023/02/14 13:09:26;;;;;;;14.13;7.75;;;23.00;41.50;;;;;;6228871;27;81496;-58
2023/02/14 13:12:26;;;;;;;12.55;7.07;;;22.90;41.40;;;;;;6255583;27;80940;-57
2023/02/14 13:15:27;;;;;;;14.65;6.75;;;22.90;41.40;;;;;;6249633;27;80660;-56
2023/02/14 13:18:28;;;;;;;14.10;7.15;;;22.90;41.40;;;;;;6250157;27;81535;-57
2023/02/14 13:21:28;;;;;;;12.38;7.07;;;22.90;41.20;;;;;;6239191;27;81022;-56
2023/02/14 13:24:29;;;;;;;11.50;6.80;;;22.90;41.20;;;;;;6248468;27;81850;-55
2023/02/14 13:27:29;;;;;;;12.20;7.30;;;22.90;41.20;;;;;;6242981;27;80550;-57
2023/02/14 13:30:30;;;;;;;11.60;6.40;;;22.90;41.90;;;;;;6247434;27;82862;-56
2023/02/14 13:33:31;;;;;;;11.07;7.32;;;22.90;41.40;;;;;;6248636;27;80947;-55
2023/02/14 13:36:32;;;;;;;11.60;6.90;;;22.90;41.20;;;;;;6248214;27;80139;-55
2023/02/14 13:39:32;;;;;;;12.07;7.50;;;22.90;41.10;;;;;;6252740;27;81258;-55
2023/02/14 13:42:33;;;;;;;11.10;7.05;;;22.90;41.00;;;;;;6250271;27;80380;-54
2023/02/14 13:45:33;;;;;;;12.40;6.72;;;22.90;40.90;;;;;;6246124;27;80387;-56
2023/02/14 13:48:34;;;;;;;13.20;7.65;;;22.80;40.90;;;;;;6250906;27;81072;-57
2023/02/14 13:51:35;;;;;;;12.13;7.70;;;22.80;40.80;;;;;;6250727;27;80828;-55
2023/02/14 13:54:35;;;;;;;15.38;7.40;;;22.90;40.80;;;;;;6252866;27;80598;-55
2023/02/14 13:57:36;;;;;;;14.07;8.10;;;22.90;40.70;;;;;;6233751;27;81360;-55
2023/02/14 14:00:37;;;;;;;11.13;7.53;;;22.90;40.40;;;;;;6240600;27;80401;-56
2023/02/14 14:03:37;;;;;;;15.98;8.18;;;22.90;40.40;;;;;;6229918;27;80871;-54
2023/02/14 14:06:38;;;;;;;11.65;8.20;;;22.90;40.00;;;;;;6237065;27;80833;-54
2023/02/14 14:09:38;;;;;;;13.43;7.65;;;22.90;40.10;;;;;;6239536;27;81328;-53
2023/02/14 14:12:39;;;;;;;12.45;7.55;;;22.90;39.90;;;;;;6244847;27;85469;-64
2023/02/14 14:15:39;;;;;;;13.35;7.50;;;23.00;39.80;;;;;;6238345;27;83080;-57
2023/02/14 14:18:40;;;;;;;11.65;7.90;;;23.00;39.70;;;;;;6245747;27;83357;-55
2023/02/14 14:21:42;;;;;;;12.73;7.88;;;23.00;39.80;;;;;;6241737;27;80402;-53
2023/02/14 14:24:43;;;;;;;20.30;8.32;;;23.10;39.90;;;;;;6228553;27;80555;-56
2023/02/14 14:27:43;;;;;;;47.17;23.30;;;23.10;40.10;;;;;;6241831;27;80802;-59
2023/02/14 14:30:44;;;;;;;88.45;42.25;;;23.10;40.30;;;;;;6239932;27;82777;-56
2023/02/14 14:33:44;;;;;;;173.27;83.35;;;23.20;40.30;;;;;;6242011;27;84806;-59
2023/02/14 14:36:45;;;;;;;172.68;87.82;;;23.20;40.50;;;;;;6251833;27;84218;-56
2023/02/14 14:39:45;;;;;;;266.83;119.72;;;23.20;40.40;;;;;;6245385;27;84650;-61
2023/02/14 14:42:47;;;;;;;281.65;130.05;;;23.20;40.50;;;;;;6245222;27;85609;-58
2023/02/14 14:45:48;;;;;;;316.50;147.25;;;23.20;40.40;;;;;;6246242;27;85534;-58
2023/02/14 14:48:48;;;;;;;301.83;140.60;;;23.20;41.10;;;;;;6238275;27;86497;-60
2023/02/14 14:51:49;;;;;;;230.38;109.18;;;23.30;41.20;;;;;;6241148;27;86340;-58
2023/02/14 14:54:50;;;;;;;197.00;93.43;;;23.30;40.80;;;;;;6208347;27;90968;-57
2023/02/14 14:57:50;;;;;;;235.98;110.95;;;23.30;40.80;;;;;;6234407;27;83998;-56
2023/02/14 15:00:51;;;;;;;324.50;143.93;;;23.30;40.70;;;;;;6231741;27;85374;-54
2023/02/14 15:03:51;;;;;;;370.05;161.88;;;23.30;40.70;;;;;;6235839;27;86663;-53
2023/02/14 15:06:53;;;;;;;443.92;195.15;;;23.30;40.60;;;;;;6226490;27;88306;-54
2023/02/14 15:09:54;;;;;;;430.13;189.20;;;23.40;40.90;;;;;;6241013;27;86497;-57
2023/02/14 15:16:14;;;;;;;383.25;150.85;;;23.40;40.50;;;;;;6247211;27;87792;-53
2023/02/14 15:19:14;;;;;;;272.60;114.50;;;23.50;40.10;;;;;;6248714;27;85522;-54
2023/02/14 15:22:15;;;;;;;224.32;99.80;;;23.50;40.20;;;;;;6225055;27;89920;-56
2023/02/14 15:25:15;;;;;;;229.82;93.72;;;23.40;40.20;;;;;;6233161;27;86439;-52
2023/02/14 15:28:16;;;;;;;183.13;82.05;;;23.50;40.10;;;;;;6235272;27;88716;-50
2023/02/14 15:31:16;;;;;;;181.85;72.10;;;23.50;40.10;;;;;;6225279;27;82928;-51
2023/02/14 15:34:17;;;;;;;153.50;64.95;;;23.40;39.90;;;;;;6222112;27;84538;-53
2023/02/14 15:37:17;;;;;;;134.15;59.67;;;23.50;40.00;;;;;;6228164;27;83993;-57
2023/02/14 15:40:18;;;;;;;125.93;53.92;;;23.50;40.50;;;;;;6234997;27;84202;-52
2023/02/14 15:43:21;;;;;;;118.93;51.03;;;23.50;40.70;;;;;;6228853;27;90878;-54